createdAt,value
2019-02-27T00:00:49.461Z,8.40
2019-02-27T00:03:23.010Z,8.67
2019-02-27T00:05:56.441Z,8.77
2019-02-27T00:08:29.859Z,8.70
2019-02-27T00:11:03.291Z,8.83
2019-02-27T00:13:36.703Z,8.93
2019-02-27T00:16:11.119Z,9.50
2019-02-27T00:18:45.335Z,9.07
2019-02-27T00:21:18.763Z,8.87
2019-02-27T00:23:52.178Z,8.67
2019-02-27T00:26:25.603Z,8.10
2019-02-27T00:28:59.023Z,8.60
2019-02-27T00:31:32.523Z,8.73
2019-02-27T00:34:05.943Z,8.77
2019-02-27T00:36:39.380Z,8.90
2019-02-27T00:39:12.791Z,8.67
2019-02-27T00:41:46.695Z,8.90
2019-02-27T00:44:20.424Z,7.93
2019-02-27T00:46:53.858Z,8.07
2019-02-27T00:49:27.267Z,8.07
2019-02-27T00:52:00.711Z,8.17
2019-02-27T00:54:34.123Z,7.60
2019-02-27T00:57:07.559Z,7.43
2019-02-27T00:59:40.971Z,7.70
2019-02-27T01:02:14.409Z,6.97
2019-02-27T01:04:47.833Z,6.97
2019-02-27T01:07:21.450Z,7.00
2019-02-27T01:09:55.171Z,7.17
2019-02-27T01:12:28.603Z,7.03
2019-02-27T01:15:02.038Z,6.93
2019-02-27T01:17:35.479Z,6.63
2019-02-27T01:20:15.507Z,7.37
2019-02-27T01:22:48.933Z,7.43
2019-02-27T01:25:23.138Z,6.90
2019-02-27T01:27:57.157Z,6.43
2019-02-27T01:30:30.568Z,6.47
2019-02-27T01:33:04.789Z,7.10
2019-02-27T01:35:38.538Z,7.03
2019-02-27T01:38:11.995Z,7.30
2019-02-27T01:40:45.496Z,6.90
2019-02-27T01:43:18.999Z,6.70
2019-02-27T01:45:54.406Z,6.77
2019-02-27T01:48:27.580Z,7.27
2019-02-27T01:51:01.836Z,7.33
2019-02-27T01:53:35.268Z,6.47
2019-02-27T01:56:08.859Z,6.97
2019-02-27T01:58:44.267Z,6.80
2019-02-27T02:01:17.428Z,7.00
2019-02-27T02:03:50.868Z,6.90
2019-02-27T02:06:24.275Z,6.73
2019-02-27T02:09:12.555Z,7.63
2019-02-27T02:11:45.957Z,7.07
2019-02-27T02:14:22.454Z,6.20
2019-02-27T02:17:10.595Z,6.27
2019-02-27T02:20:07.563Z,7.37
2019-02-27T02:22:46.665Z,7.07
2019-02-27T02:25:29.005Z,7.37
2019-02-27T02:28:26.660Z,7.57
2019-02-27T02:31:08.940Z,7.23
2019-02-27T02:33:51.095Z,7.20
2019-02-27T02:36:47.298Z,7.53
2019-02-27T02:39:41.857Z,7.87
2019-02-27T02:42:25.399Z,6.97
2019-02-27T02:45:23.083Z,7.40
2019-02-27T02:48:16.031Z,7.07
2019-02-27T02:50:55.130Z,6.63
2019-02-27T02:53:48.645Z,6.90
2019-02-27T02:56:33.453Z,6.53
2019-02-27T02:59:26.321Z,6.30
2019-02-27T03:02:08.744Z,6.67
2019-02-27T03:05:07.734Z,6.30
2019-02-27T03:07:47.040Z,6.30
2019-02-27T03:10:42.811Z,6.80
2019-02-27T03:13:34.632Z,6.30
2019-02-27T03:16:11.146Z,6.50
2019-02-27T03:18:50.376Z,6.23
2019-02-27T03:21:47.417Z,6.30
2019-02-27T03:24:43.265Z,6.87
2019-02-27T03:27:45.332Z,6.77
2019-02-27T03:30:38.497Z,6.53
2019-02-27T03:33:26.815Z,7.40
2019-02-27T03:36:21.556Z,7.33
2019-02-27T03:39:18.777Z,7.50
2019-02-27T03:42:13.160Z,7.50
2019-02-27T03:44:58.597Z,7.60
2019-02-27T03:47:41.019Z,7.13
2019-02-27T03:50:35.273Z,6.73
2019-02-27T03:53:32.668Z,6.47
2019-02-27T03:56:44.743Z,6.90
2019-02-27T03:59:21.351Z,7.30
2019-02-27T04:02:05.758Z,6.43
2019-02-27T04:04:53.040Z,6.40
2019-02-27T04:07:47.397Z,6.70
2019-02-27T04:10:20.881Z,6.60
2019-02-27T04:12:54.334Z,6.67
2019-02-27T04:15:27.756Z,6.47
2019-02-27T04:18:00.123Z,6.80
2019-02-27T04:20:33.536Z,6.80
2019-02-27T04:23:11.457Z,7.20
2019-02-27T04:25:42.124Z,6.63
2019-02-27T04:28:15.582Z,6.90
2019-02-27T04:30:51.382Z,7.00
2019-02-27T04:33:24.313Z,6.90
2019-02-27T04:35:57.801Z,6.93
2019-02-27T04:38:31.229Z,7.10
2019-02-27T04:41:04.727Z,6.83
2019-02-27T04:43:38.169Z,7.43
2019-02-27T04:46:11.593Z,7.20
2019-02-27T04:48:45.026Z,6.30
2019-02-27T04:51:18.439Z,6.80
2019-02-27T04:53:51.872Z,6.53
2019-02-27T04:56:25.292Z,7.40
2019-02-27T04:58:58.724Z,6.43
2019-02-27T05:01:36.431Z,6.57
2019-02-27T05:04:07.318Z,6.60
2019-02-27T05:06:40.737Z,6.47
2019-02-27T05:09:14.176Z,6.33
2019-02-27T05:11:48.280Z,6.67
2019-02-27T05:14:21.919Z,6.43
2019-02-27T05:16:55.328Z,7.13
2019-02-27T05:19:28.761Z,6.70
2019-02-27T05:22:02.183Z,6.60
2019-02-27T05:24:35.617Z,7.00
2019-02-27T05:27:09.045Z,7.03
2019-02-27T05:29:42.482Z,7.07
2019-02-27T05:32:18.018Z,7.10
2019-02-27T05:34:51.058Z,6.53
2019-02-27T05:37:24.476Z,6.73
2019-02-27T05:39:57.924Z,6.77
2019-02-27T05:42:31.348Z,6.63
2019-02-27T05:45:07.548Z,7.73
2019-02-27T05:47:44.817Z,7.50
2019-02-27T05:50:16.131Z,7.20
2019-02-27T05:52:49.677Z,8.13
2019-02-27T05:55:23.156Z,7.47
2019-02-27T05:57:56.577Z,7.37
2019-02-27T06:00:30.724Z,7.40
2019-02-27T06:03:04.220Z,7.83
2019-02-27T06:05:37.654Z,8.13
2019-02-27T06:08:11.080Z,8.97
2019-02-27T06:10:44.528Z,11.10
2019-02-27T06:13:17.953Z,10.10
2019-02-27T06:15:51.400Z,11.17
2019-02-27T06:18:24.833Z,11.13
2019-02-27T06:20:58.274Z,11.90
2019-02-27T06:23:31.703Z,12.00
2019-02-27T06:26:05.142Z,8.87
2019-02-27T06:28:38.594Z,10.27
2019-02-27T06:31:31.373Z,8.63
2019-02-27T06:34:04.859Z,8.40
2019-02-27T06:36:41.852Z,8.77
2019-02-27T06:39:13.439Z,8.90
2019-02-27T06:41:47.473Z,9.13
2019-02-27T06:44:22.008Z,9.00
2019-02-27T06:46:55.440Z,9.03
2019-02-27T06:49:28.875Z,9.20
2019-02-27T06:52:02.433Z,8.57
2019-02-27T06:54:37.753Z,9.27
2019-02-27T06:57:10.999Z,7.77
2019-02-27T06:59:44.436Z,8.80
2019-02-27T07:02:19.136Z,8.70
2019-02-27T07:04:53.036Z,10.13
2019-02-27T07:07:28.820Z,8.93
2019-02-27T07:10:01.638Z,9.27
2019-02-27T07:12:35.083Z,9.57
2019-02-27T07:15:14.280Z,9.33
2019-02-27T07:17:47.714Z,9.43
2019-02-27T07:20:24.546Z,9.97
2019-02-27T07:22:57.721Z,9.77
2019-02-27T07:25:31.185Z,9.77
2019-02-27T07:28:08.196Z,10.07
2019-02-27T07:30:42.434Z,9.20
2019-02-27T07:33:14.948Z,10.73
2019-02-27T07:35:48.393Z,10.27
2019-02-27T07:38:22.281Z,9.40
2019-02-27T07:40:55.877Z,10.97
2019-02-27T07:43:29.316Z,12.20
2019-02-27T07:46:02.749Z,10.50
2019-02-27T07:48:36.186Z,10.50
2019-02-27T07:51:09.612Z,9.27
2019-02-27T07:53:43.038Z,9.47
2019-02-27T07:56:16.456Z,9.40
2019-02-27T07:58:49.892Z,10.03
2019-02-27T08:01:24.153Z,10.43
2019-02-27T08:03:57.937Z,11.43
2019-02-27T08:06:31.358Z,11.80
2019-02-27T08:09:06.172Z,10.67
2019-02-27T08:11:39.591Z,10.50
2019-02-27T08:14:13.128Z,10.23
2019-02-27T08:16:47.993Z,9.67
2019-02-27T08:19:21.735Z,9.77
2019-02-27T08:21:55.159Z,9.47
2019-02-27T08:24:28.626Z,9.70
2019-02-27T08:27:02.096Z,10.10
2019-02-27T08:29:35.534Z,9.40
2019-02-27T08:32:08.955Z,9.87
2019-02-27T08:34:42.385Z,10.43
2019-02-27T08:37:15.804Z,9.23
2019-02-27T08:39:49.232Z,9.47
2019-02-27T08:42:22.661Z,9.47
2019-02-27T08:44:56.098Z,10.07
2019-02-27T08:47:29.528Z,9.00
2019-02-27T08:50:02.952Z,9.80
2019-02-27T08:52:36.369Z,9.10
2019-02-27T08:55:19.065Z,9.23
2019-02-27T08:57:49.778Z,8.90
2019-02-27T09:00:31.548Z,9.43
2019-02-27T09:03:04.969Z,8.83
2019-02-27T09:05:38.409Z,8.33
2019-02-27T09:08:11.901Z,7.80
2019-02-27T09:10:45.339Z,6.70
2019-02-27T09:13:18.753Z,7.47
2019-02-27T09:15:52.200Z,9.40
2019-02-27T09:18:25.620Z,7.90
2019-02-27T09:20:59.052Z,7.17
2019-02-27T09:23:32.486Z,8.17
2019-02-27T09:26:05.908Z,7.83
2019-02-27T09:28:39.328Z,7.70
2019-02-27T09:31:12.784Z,8.90
2019-02-27T09:33:46.269Z,7.73
2019-02-27T09:36:19.712Z,8.73
2019-02-27T09:38:57.286Z,8.47
2019-02-27T09:41:28.394Z,8.50
2019-02-27T09:44:01.801Z,9.00
2019-02-27T09:46:35.328Z,10.00
2019-02-27T09:49:08.748Z,8.97
2019-02-27T09:51:42.206Z,9.10
2019-02-27T09:54:15.629Z,9.60
2019-02-27T09:56:49.089Z,9.57
2019-02-27T09:59:22.566Z,9.80
2019-02-27T10:01:57.308Z,8.93
2019-02-27T10:04:31.042Z,9.73
2019-02-27T10:07:04.608Z,9.20
2019-02-27T10:09:38.044Z,9.60
2019-02-27T10:12:11.497Z,9.73
2019-02-27T10:14:44.929Z,10.60
2019-02-27T10:17:18.360Z,10.70
2019-02-27T10:19:51.809Z,11.27
2019-02-27T10:22:25.244Z,11.27
2019-02-27T10:24:58.740Z,11.20
2019-02-27T10:27:32.181Z,11.43
2019-02-27T10:30:11.898Z,12.10
2019-02-27T10:32:45.425Z,11.60
2019-02-27T10:35:18.865Z,11.90
2019-02-27T10:37:54.337Z,12.83
2019-02-27T10:40:27.863Z,11.83
2019-02-27T10:43:01.345Z,13.53
2019-02-27T10:45:34.779Z,13.60
2019-02-27T10:48:08.217Z,13.13
2019-02-27T10:50:41.647Z,12.97
2019-02-27T10:53:15.091Z,13.53
2019-02-27T10:55:49.242Z,13.83
2019-02-27T10:58:24.694Z,14.30
2019-02-27T11:01:01.210Z,13.80
2019-02-27T11:03:33.400Z,14.37
2019-02-27T11:06:06.830Z,13.63
2019-02-27T11:08:40.282Z,13.63
2019-02-27T11:11:16.425Z,13.70
2019-02-27T11:13:51.739Z,14.90
2019-02-27T11:16:24.086Z,13.70
2019-02-27T11:18:57.530Z,15.33
2019-02-27T11:21:30.965Z,14.33
2019-02-27T11:24:04.413Z,15.07
2019-02-27T11:26:37.842Z,14.30
2019-02-27T11:29:11.309Z,15.87
2019-02-27T11:31:45.587Z,14.87
2019-02-27T11:34:19.869Z,15.37
2019-02-27T11:36:53.292Z,14.80
2019-02-27T11:39:26.732Z,14.67
2019-02-27T11:42:00.156Z,14.27
2019-02-27T11:44:33.641Z,14.93
2019-02-27T11:47:11.038Z,15.17
2019-02-27T11:49:43.543Z,14.03
2019-02-27T11:52:16.980Z,14.17
2019-02-27T11:54:50.425Z,14.33
2019-02-27T11:57:23.853Z,13.63
2019-02-27T11:59:57.297Z,14.23
2019-02-27T12:02:36.797Z,13.33
2019-02-27T12:05:09.231Z,14.50
2019-02-27T12:07:42.682Z,13.10
2019-02-27T12:10:21.994Z,13.60
2019-02-27T12:12:59.523Z,13.00
2019-02-27T12:15:30.965Z,13.27
2019-02-27T12:18:04.410Z,13.70
2019-02-27T12:20:37.914Z,12.80
2019-02-27T12:23:11.342Z,13.57
2019-02-27T12:25:46.053Z,12.33
2019-02-27T12:28:19.555Z,12.57
2019-02-27T12:30:52.988Z,12.90
2019-02-27T12:33:29.196Z,12.90
2019-02-27T12:36:01.595Z,13.60
2019-02-27T12:38:35.020Z,12.77
2019-02-27T12:41:08.524Z,12.50
2019-02-27T12:43:41.952Z,11.93
2019-02-27T12:46:15.400Z,12.17
2019-02-27T12:48:48.834Z,12.30
2019-02-27T12:51:22.292Z,12.57
2019-02-27T12:53:55.725Z,12.77
2019-02-27T12:56:29.161Z,11.87
2019-02-27T12:59:02.599Z,12.00
2019-02-27T13:01:36.045Z,11.97
2019-02-27T13:04:09.484Z,13.20
2019-02-27T13:06:42.925Z,12.57
2019-02-27T13:09:16.381Z,12.40
2019-02-27T13:11:49.956Z,12.00
2019-02-27T13:14:23.380Z,12.57
2019-02-27T13:16:56.817Z,16.93
2019-02-27T13:19:30.245Z,12.73
2019-02-27T13:22:03.696Z,12.87
2019-02-27T13:24:37.120Z,12.43
2019-02-27T13:27:10.557Z,11.47
2019-02-27T13:29:44.569Z,11.70
2019-02-27T13:32:18.194Z,11.80
2019-02-27T13:34:51.692Z,11.50
2019-02-27T13:37:25.132Z,11.80
2019-02-27T13:40:00.409Z,12.13
2019-02-27T13:42:33.727Z,12.47
2019-02-27T13:45:13.494Z,12.03
2019-02-27T13:47:47.191Z,17.00
2019-02-27T13:50:23.581Z,11.03
2019-02-27T13:52:55.923Z,10.17
2019-02-27T13:55:29.352Z,8.60
2019-02-27T13:58:03.800Z,7.50
2019-02-27T14:00:38.342Z,7.33
2019-02-27T14:03:12.615Z,6.33
2019-02-27T14:05:46.888Z,9.37
2019-02-27T14:08:20.393Z,8.73
2019-02-27T14:10:54.052Z,8.07
2019-02-27T14:13:27.841Z,7.87
2019-02-27T14:16:01.602Z,6.90
2019-02-27T14:18:35.260Z,6.40
2019-02-27T14:21:08.681Z,5.37
2019-02-27T14:23:42.121Z,5.70
2019-02-27T14:26:15.548Z,4.50
2019-02-27T14:28:48.985Z,4.33
2019-02-27T14:31:22.405Z,4.57
2019-02-27T14:33:55.841Z,4.83
2019-02-27T14:36:29.269Z,5.10
2019-02-27T14:39:04.584Z,4.60
2019-02-27T14:41:38.032Z,4.83
2019-02-27T14:44:11.480Z,4.60
2019-02-27T14:46:45.119Z,4.33
2019-02-27T14:49:19.376Z,4.70
2019-02-27T14:51:52.796Z,4.70
2019-02-27T14:54:29.173Z,4.13
2019-02-27T14:57:01.407Z,4.93
2019-02-27T14:59:34.853Z,5.10
2019-02-27T15:02:08.281Z,5.50
2019-02-27T15:04:41.720Z,5.50
2019-02-27T15:07:15.157Z,5.20
2019-02-27T15:09:48.588Z,5.30
2019-02-27T15:12:22.012Z,5.00
2019-02-27T15:14:55.440Z,5.23
2019-02-27T15:17:28.865Z,5.37
2019-02-27T15:20:05.649Z,5.13
2019-02-27T15:22:37.789Z,5.33
2019-02-27T15:25:13.781Z,5.57
2019-02-27T15:27:47.264Z,5.87
2019-02-27T15:30:22.845Z,5.53
2019-02-27T15:32:56.272Z,5.57
2019-02-27T15:35:29.712Z,5.87
2019-02-27T15:38:03.138Z,5.40
2019-02-27T15:40:38.306Z,5.70
2019-02-27T15:43:11.818Z,6.30
2019-02-27T15:45:48.080Z,5.57
2019-02-27T15:48:22.044Z,6.20
2019-02-27T15:50:57.198Z,6.50
2019-02-27T15:53:30.717Z,8.10
2019-02-27T15:56:05.379Z,6.67
2019-02-27T15:58:39.368Z,5.87
2019-02-27T16:01:12.816Z,6.80
2019-02-27T16:03:46.717Z,5.07
2019-02-27T16:06:22.010Z,5.73
2019-02-27T16:08:58.270Z,5.97
2019-02-27T16:11:30.673Z,6.20
2019-02-27T16:14:23.430Z,6.30
2019-02-27T16:16:57.553Z,5.83
2019-02-27T16:19:31.813Z,7.00
2019-02-27T16:22:05.473Z,6.83
2019-02-27T16:24:40.353Z,7.07
2019-02-27T16:27:14.943Z,7.47
2019-02-27T16:29:48.427Z,7.63
2019-02-27T16:32:22.499Z,7.47
2019-02-27T16:34:56.182Z,6.67
2019-02-27T16:37:31.466Z,5.97
2019-02-27T16:40:08.168Z,7.00
2019-02-27T16:42:41.794Z,6.83
2019-02-27T16:45:20.534Z,6.57
2019-02-27T16:47:56.849Z,6.30
2019-02-27T16:50:29.200Z,6.70
2019-02-27T16:53:02.644Z,7.43
2019-02-27T16:55:37.166Z,7.27
2019-02-27T16:58:11.102Z,7.40
2019-02-27T17:00:44.521Z,7.47
2019-02-27T17:03:19.497Z,8.53
2019-02-27T17:05:52.928Z,8.07
2019-02-27T17:08:28.252Z,8.67
2019-02-27T17:11:01.518Z,8.03
2019-02-27T17:13:34.969Z,7.80
2019-02-27T17:16:10.677Z,8.43
2019-02-27T17:18:43.627Z,8.00
2019-02-27T17:21:21.846Z,8.23
2019-02-27T17:23:52.273Z,8.50
2019-02-27T17:26:25.701Z,9.23
2019-02-27T17:28:59.145Z,8.60
2019-02-27T17:31:32.585Z,9.00
2019-02-27T17:34:06.032Z,9.70
2019-02-27T17:36:39.515Z,10.07
2019-02-27T17:39:13.059Z,9.50
2019-02-27T17:41:46.573Z,9.73
2019-02-27T17:44:20.069Z,9.07
2019-02-27T17:46:54.761Z,8.50
2019-02-27T17:49:28.640Z,10.33
2019-02-27T17:52:10.974Z,9.83
2019-02-27T17:54:37.233Z,9.67
2019-02-27T17:57:10.657Z,9.70
2019-02-27T17:59:44.095Z,10.27
2019-02-27T18:02:17.524Z,10.83
2019-02-27T18:04:53.710Z,9.90
2019-02-27T18:07:34.192Z,11.13
2019-02-27T18:10:02.318Z,12.10
2019-02-27T18:12:35.909Z,12.07
2019-02-27T18:15:19.845Z,12.57
2019-02-27T18:17:50.176Z,13.27
2019-02-27T18:20:25.579Z,12.13
2019-02-27T18:22:58.761Z,12.60
2019-02-27T18:25:32.227Z,12.83
2019-02-27T18:28:05.648Z,12.97
2019-02-27T18:30:39.168Z,13.03
2019-02-27T18:33:13.975Z,13.73
2019-02-27T18:35:47.763Z,13.77
2019-02-27T18:38:21.190Z,15.17
2019-02-27T18:40:54.623Z,13.90
2019-02-27T18:43:30.137Z,13.30
2019-02-27T18:46:03.219Z,14.20
2019-02-27T18:48:36.646Z,14.67
2019-02-27T18:51:10.076Z,13.50
2019-02-27T18:53:47.333Z,14.13
2019-02-27T18:56:18.689Z,14.10
2019-02-27T18:58:55.629Z,13.53
2019-02-27T19:01:28.815Z,13.27
2019-02-27T19:04:02.241Z,13.90
2019-02-27T19:06:36.056Z,13.47
2019-02-27T19:09:09.932Z,16.03
2019-02-27T19:11:43.372Z,17.87
2019-02-27T19:14:16.829Z,18.73
2019-02-27T19:16:52.179Z,17.50
2019-02-27T19:19:25.534Z,15.47
2019-02-27T19:21:59.021Z,16.20
2019-02-27T19:24:32.575Z,17.87
2019-02-27T19:27:06.069Z,15.17
2019-02-27T19:29:39.512Z,14.20
2019-02-27T19:32:12.949Z,14.47
2019-02-27T19:34:48.061Z,14.57
2019-02-27T19:37:21.648Z,13.27
2019-02-27T19:39:56.325Z,13.17
2019-02-27T19:42:30.236Z,15.03
2019-02-27T19:45:05.181Z,14.50
2019-02-27T19:47:38.646Z,14.23
2019-02-27T19:50:12.226Z,14.97
2019-02-27T19:52:45.721Z,14.93
2019-02-27T19:55:19.322Z,15.33
2019-02-27T19:57:52.816Z,18.03
2019-02-27T20:00:33.780Z,16.10
2019-02-27T20:03:04.936Z,15.83
2019-02-27T20:05:38.377Z,15.47
2019-02-27T20:08:11.960Z,15.13
2019-02-27T20:10:45.428Z,14.90
2019-02-27T20:13:18.972Z,15.47
2019-02-27T20:15:52.475Z,16.50
2019-02-27T20:18:25.896Z,15.47
2019-02-27T20:20:59.400Z,13.53
2019-02-27T20:23:32.830Z,13.60
2019-02-27T20:26:13.876Z,14.90
2019-02-27T20:28:41.411Z,14.23
2019-02-27T20:31:17.982Z,16.67
2019-02-27T20:33:50.177Z,18.37
2019-02-27T20:36:23.621Z,19.90
2019-02-27T20:38:57.045Z,15.97
2019-02-27T20:41:30.681Z,17.23
2019-02-27T20:44:04.360Z,16.33
2019-02-27T20:46:38.396Z,14.17
2019-02-27T20:49:13.980Z,14.23
2019-02-27T20:51:47.048Z,13.80
2019-02-27T20:54:20.472Z,13.67
2019-02-27T20:56:55.769Z,13.10
2019-02-27T20:59:29.053Z,14.10
2019-02-27T21:02:02.496Z,14.27
2019-02-27T21:04:35.980Z,14.07
2019-02-27T21:07:09.438Z,15.07
2019-02-27T21:09:45.236Z,13.17
2019-02-27T21:12:18.084Z,13.40
2019-02-27T21:14:51.506Z,13.77
2019-02-27T21:17:24.948Z,12.53
2019-02-27T21:19:58.369Z,13.10
2019-02-27T21:22:31.825Z,14.90
2019-02-27T21:25:07.295Z,14.30
2019-02-27T21:27:40.725Z,14.90
2019-02-27T21:30:22.132Z,13.90
2019-02-27T21:32:55.577Z,13.00
2019-02-27T21:35:29.839Z,12.63
2019-02-27T21:38:03.784Z,11.20
2019-02-27T21:40:37.209Z,11.77
2019-02-27T21:43:10.712Z,12.10
2019-02-27T21:45:44.200Z,12.53
2019-02-27T21:48:17.639Z,12.93
2019-02-27T21:50:51.061Z,14.50
2019-02-27T21:53:26.084Z,13.13
2019-02-27T21:56:00.032Z,14.10
2019-02-27T21:58:33.486Z,13.43
2019-02-27T22:01:06.897Z,12.33
2019-02-27T22:03:40.333Z,12.13
2019-02-27T22:06:13.757Z,12.77
2019-02-27T22:08:47.205Z,13.27
2019-02-27T22:11:20.616Z,12.00
2019-02-27T22:13:54.048Z,12.20
2019-02-27T22:16:30.488Z,12.50
2019-02-27T22:19:02.642Z,11.57
2019-02-27T22:21:36.061Z,11.97
2019-02-27T22:24:09.540Z,11.60
2019-02-27T22:26:42.956Z,12.53
2019-02-27T22:29:16.403Z,12.40
2019-02-27T22:31:49.816Z,12.17
2019-02-27T22:34:23.251Z,11.77
2019-02-27T22:36:56.671Z,12.53
2019-02-27T22:39:31.698Z,11.87
2019-02-27T22:42:05.252Z,12.10
2019-02-27T22:44:38.699Z,12.13
2019-02-27T22:47:12.125Z,11.73
2019-02-27T22:49:45.565Z,12.13
2019-02-27T22:52:19.581Z,12.63
2019-02-27T22:54:54.158Z,12.40
2019-02-27T22:57:27.584Z,12.33
2019-02-27T23:00:01.023Z,12.30
2019-02-27T23:02:34.450Z,13.03
2019-02-27T23:05:27.301Z,12.40
2019-02-27T23:08:00.716Z,12.60
2019-02-27T23:10:34.232Z,12.20
2019-02-27T23:13:12.384Z,13.03
2019-02-27T23:15:44.412Z,12.00
2019-02-27T23:18:17.913Z,12.37
2019-02-27T23:20:52.573Z,12.97
2019-02-27T23:23:26.577Z,12.77
2019-02-27T23:26:00.013Z,12.33
2019-02-27T23:28:34.718Z,11.33
2019-02-27T23:31:08.665Z,12.07
2019-02-27T23:33:42.092Z,13.03
2019-02-27T23:36:15.537Z,11.53
2019-02-27T23:38:48.957Z,11.60
2019-02-27T23:41:23.172Z,10.97
2019-02-27T23:43:57.393Z,11.23
2019-02-27T23:46:30.827Z,12.60
2019-02-27T23:49:06.570Z,11.57
2019-02-27T23:51:41.852Z,10.97
2019-02-27T23:54:15.281Z,12.00
2019-02-27T23:56:51.759Z,11.63
2019-02-27T23:59:43.201Z,10.63
